sensor_id;sensor_type;location;lat;lon;timestamp;temperature;humidity
22008;DHT22;11168;56.976;24.168;2023-02-28T00:01:14;-0.10;99.90
22008;DHT22;11168;56.976;24.168;2023-02-28T00:03:41;-0.10;99.90
22008;DHT22;11168;56.976;24.168;2023-02-28T00:06:09;-0.10;99.90
22008;DHT22;11168;56.976;24.168;2023-02-28T00:08:39;-0.10;99.90
22008;DHT22;11168;56.976;24.168;2023-02-28T00:11:08;-0.10;99.90
22008;DHT22;11168;56.976;24.168;2023-02-28T00:13:38;-0.10;99.90
22008;DHT22;11168;56.976;24.168;2023-02-28T00:16:11;-0.20;99.90
22008;DHT22;11168;56.976;24.168;2023-02-28T00:18:40;-0.10;99.90
22008;DHT22;11168;56.976;24.168;2023-02-28T00:21:07;-0.20;99.90
22008;DHT22;11168;56.976;24.168;2023-02-28T00:23:35;-0.20;99.90
22008;DHT22;11168;56.976;24.168;2023-02-28T00:26:02;-0.20;99.90
22008;DHT22;11168;56.976;24.168;2023-02-28T00:28:29;-0.20;99.90
22008;DHT22;11168;56.976;24.168;2023-02-28T00:30:56;-0.20;99.90
22008;DHT22;11168;56.976;24.168;2023-02-28T00:33:24;-0.20;99.90
22008;DHT22;11168;56.976;24.168;2023-02-28T00:35:51;-0.20;99.90
22008;DHT22;11168;56.976;24.168;2023-02-28T00:38:18;-0.20;99.90
22008;DHT22;11168;56.976;24.168;2023-02-28T00:40:45;-0.30;99.90
22008;DHT22;11168;56.976;24.168;2023-02-28T00:43:12;-0.30;99.90
22008;DHT22;11168;56.976;24.168;2023-02-28T00:45:39;-0.20;99.90
22008;DHT22;11168;56.976;24.168;2023-02-28T00:48:06;-0.30;99.90
22008;DHT22;11168;56.976;24.168;2023-02-28T00:50:33;-0.30;99.90
22008;DHT22;11168;56.976;24.168;2023-02-28T00:52:59;-0.30;99.90
22008;DHT22;11168;56.976;24.168;2023-02-28T00:55:26;-0.20;99.90
22008;DHT22;11168;56.976;24.168;2023-02-28T00:57:53;-0.20;99.90
22008;DHT22;11168;56.976;24.168;2023-02-28T01:00:20;-0.30;99.90
22008;DHT22;11168;56.976;24.168;2023-02-28T01:02:47;-0.30;99.90
22008;DHT22;11168;56.976;24.168;2023-02-28T01:05:14;-0.30;99.90
22008;DHT22;11168;56.976;24.168;2023-02-28T01:07:41;-0.20;99.90
22008;DHT22;11168;56.976;24.168;2023-02-28T01:10:09;-0.30;99.90
22008;DHT22;11168;56.976;24.168;2023-02-28T01:12:36;-0.30;99.90
22008;DHT22;11168;56.976;24.168;2023-02-28T01:15:03;-0.30;99.90
22008;DHT22;11168;56.976;24.168;2023-02-28T01:17:30;-0.30;99.90
22008;DHT22;11168;56.976;24.168;2023-02-28T01:19:57;-0.30;99.90
22008;DHT22;11168;56.976;24.168;2023-02-28T01:22:24;-0.30;99.90
22008;DHT22;11168;56.976;24.168;2023-02-28T01:24:51;-0.40;99.90
22008;DHT22;11168;56.976;24.168;2023-02-28T01:27:18;-0.30;99.90
22008;DHT22;11168;56.976;24.168;2023-02-28T01:29:45;-0.40;99.90
22008;DHT22;11168;56.976;24.168;2023-02-28T01:32:12;-0.40;99.90
22008;DHT22;11168;56.976;24.168;2023-02-28T01:34:39;-0.40;99.90
22008;DHT22;11168;56.976;24.168;2023-02-28T01:37:06;-0.40;99.90
22008;DHT22;11168;56.976;24.168;2023-02-28T01:39:33;-0.40;99.90
22008;DHT22;11168;56.976;24.168;2023-02-28T01:42:00;-0.40;99.90
22008;DHT22;11168;56.976;24.168;2023-02-28T01:47:22;-0.40;99.90
22008;DHT22;11168;56.976;24.168;2023-02-28T01:49:51;-0.40;99.90
22008;DHT22;11168;56.976;24.168;2023-02-28T01:52:19;-0.40;99.90
22008;DHT22;11168;56.976;24.168;2023-02-28T01:54:53;-0.40;99.90
22008;DHT22;11168;56.976;24.168;2023-02-28T01:57:24;-0.40;99.90
22008;DHT22;11168;56.976;24.168;2023-02-28T01:59:54;-0.40;99.90
22008;DHT22;11168;56.976;24.168;2023-02-28T02:02:25;-0.40;99.90
22008;DHT22;11168;56.976;24.168;2023-02-28T02:07:37;-0.30;99.90
22008;DHT22;11168;56.976;24.168;2023-02-28T02:10:30;-0.20;99.90
22008;DHT22;11168;56.976;24.168;2023-02-28T02:13:28;-0.20;99.90
22008;DHT22;11168;56.976;24.168;2023-02-28T02:18:38;0.00;99.90
22008;DHT22;11168;56.976;24.168;2023-02-28T02:32:12;0.20;99.90
22008;DHT22;11168;56.976;24.168;2023-02-28T02:45:23;0.30;99.90
22008;DHT22;11168;56.976;24.168;2023-02-28T02:47:53;0.40;99.90
22008;DHT22;11168;56.976;24.168;2023-02-28T02:50:26;0.40;99.90
22008;DHT22;11168;56.976;24.168;2023-02-28T02:52:58;0.50;99.90
22008;DHT22;11168;56.976;24.168;2023-02-28T02:55:26;0.40;99.90
22008;DHT22;11168;56.976;24.168;2023-02-28T02:58:00;0.50;99.90
22008;DHT22;11168;56.976;24.168;2023-02-28T03:00:39;0.40;99.90
22008;DHT22;11168;56.976;24.168;2023-02-28T03:03:09;0.40;99.90
22008;DHT22;11168;56.976;24.168;2023-02-28T03:05:48;0.40;99.90
22008;DHT22;11168;56.976;24.168;2023-02-28T03:08:16;0.40;99.90
22008;DHT22;11168;56.976;24.168;2023-02-28T03:10:56;0.50;99.90
22008;DHT22;11168;56.976;24.168;2023-02-28T03:21:24;0.80;99.90
22008;DHT22;11168;56.976;24.168;2023-02-28T03:26:53;0.80;99.90
22008;DHT22;11168;56.976;24.168;2023-02-28T03:29:35;0.90;99.90
22008;DHT22;11168;56.976;24.168;2023-02-28T03:32:11;0.90;99.90
22008;DHT22;11168;56.976;24.168;2023-02-28T03:34:51;0.90;99.90
22008;DHT22;11168;56.976;24.168;2023-02-28T03:37:23;1.00;99.90
22008;DHT22;11168;56.976;24.168;2023-02-28T03:40:01;1.00;99.90
22008;DHT22;11168;56.976;24.168;2023-02-28T03:42:32;1.00;99.90
22008;DHT22;11168;56.976;24.168;2023-02-28T03:45:04;1.00;99.90
22008;DHT22;11168;56.976;24.168;2023-02-28T03:47:54;1.00;99.90
22008;DHT22;11168;56.976;24.168;2023-02-28T03:50:36;1.00;99.90
22008;DHT22;11168;56.976;24.168;2023-02-28T03:53:37;1.10;99.90
22008;DHT22;11168;56.976;24.168;2023-02-28T04:01:13;1.20;99.90
22008;DHT22;11168;56.976;24.168;2023-02-28T04:03:42;1.30;99.90
22008;DHT22;11168;56.976;24.168;2023-02-28T04:06:16;1.40;99.90
22008;DHT22;11168;56.976;24.168;2023-02-28T04:08:44;1.40;99.90
22008;DHT22;11168;56.976;24.168;2023-02-28T04:13:46;1.40;99.90
22008;DHT22;11168;56.976;24.168;2023-02-28T04:16:14;1.50;99.90
22008;DHT22;11168;56.976;24.168;2023-02-28T04:19:00;1.50;99.90
22008;DHT22;11168;56.976;24.168;2023-02-28T04:24:05;1.60;99.90
22008;DHT22;11168;56.976;24.168;2023-02-28T04:26:36;1.60;99.90
22008;DHT22;11168;56.976;24.168;2023-02-28T04:29:06;1.60;99.90
22008;DHT22;11168;56.976;24.168;2023-02-28T04:31:34;1.60;99.90
22008;DHT22;11168;56.976;24.168;2023-02-28T04:34:01;1.60;99.90
22008;DHT22;11168;56.976;24.168;2023-02-28T04:36:28;1.50;99.90
22008;DHT22;11168;56.976;24.168;2023-02-28T04:38:55;1.50;99.90
22008;DHT22;11168;56.976;24.168;2023-02-28T04:41:23;1.50;99.90
22008;DHT22;11168;56.976;24.168;2023-02-28T04:43:53;1.50;99.90
22008;DHT22;11168;56.976;24.168;2023-02-28T04:46:20;1.50;99.90
22008;DHT22;11168;56.976;24.168;2023-02-28T04:48:48;1.50;99.90
22008;DHT22;11168;56.976;24.168;2023-02-28T04:51:17;1.50;99.90
22008;DHT22;11168;56.976;24.168;2023-02-28T04:53:45;1.50;99.90
22008;DHT22;11168;56.976;24.168;2023-02-28T04:56:14;1.60;99.90
22008;DHT22;11168;56.976;24.168;2023-02-28T04:58:42;1.60;99.90
22008;DHT22;11168;56.976;24.168;2023-02-28T05:03:50;1.70;99.90
22008;DHT22;11168;56.976;24.168;2023-02-28T05:06:18;1.80;99.90
22008;DHT22;11168;56.976;24.168;2023-02-28T05:08:47;1.80;99.90
22008;DHT22;11168;56.976;24.168;2023-02-28T05:11:20;1.80;99.90
22008;DHT22;11168;56.976;24.168;2023-02-28T05:13:49;1.90;99.90
22008;DHT22;11168;56.976;24.168;2023-02-28T05:16:16;1.90;99.90
22008;DHT22;11168;56.976;24.168;2023-02-28T05:18:44;1.90;99.90
22008;DHT22;11168;56.976;24.168;2023-02-28T05:21:24;1.90;99.90
22008;DHT22;11168;56.976;24.168;2023-02-28T05:23:52;1.90;99.90
22008;DHT22;11168;56.976;24.168;2023-02-28T05:26:19;1.90;99.90
22008;DHT22;11168;56.976;24.168;2023-02-28T05:28:47;2.00;99.90
22008;DHT22;11168;56.976;24.168;2023-02-28T05:31:14;2.00;99.90
22008;DHT22;11168;56.976;24.168;2023-02-28T05:33:41;2.00;99.90
22008;DHT22;11168;56.976;24.168;2023-02-28T05:36:08;2.10;99.90
22008;DHT22;11168;56.976;24.168;2023-02-28T05:38:35;2.10;99.90
22008;DHT22;11168;56.976;24.168;2023-02-28T05:41:08;2.10;99.90
22008;DHT22;11168;56.976;24.168;2023-02-28T05:43:37;2.10;99.90
22008;DHT22;11168;56.976;24.168;2023-02-28T05:46:09;2.10;99.90
22008;DHT22;11168;56.976;24.168;2023-02-28T05:48:37;2.20;99.90
22008;DHT22;11168;56.976;24.168;2023-02-28T05:51:06;2.20;99.90
22008;DHT22;11168;56.976;24.168;2023-02-28T05:53:33;2.30;99.90
22008;DHT22;11168;56.976;24.168;2023-02-28T05:56:01;2.20;99.90
22008;DHT22;11168;56.976;24.168;2023-02-28T05:58:28;2.20;99.90
22008;DHT22;11168;56.976;24.168;2023-02-28T06:00:59;2.30;99.90
22008;DHT22;11168;56.976;24.168;2023-02-28T06:03:26;2.40;99.90
22008;DHT22;11168;56.976;24.168;2023-02-28T06:05:53;2.40;99.90
22008;DHT22;11168;56.976;24.168;2023-02-28T06:08:20;2.40;99.90
22008;DHT22;11168;56.976;24.168;2023-02-28T06:10:47;2.40;99.90
22008;DHT22;11168;56.976;24.168;2023-02-28T06:13:14;2.40;99.90
22008;DHT22;11168;56.976;24.168;2023-02-28T06:15:41;2.50;99.90
22008;DHT22;11168;56.976;24.168;2023-02-28T06:18:08;2.50;99.90
22008;DHT22;11168;56.976;24.168;2023-02-28T06:20:35;2.60;99.90
22008;DHT22;11168;56.976;24.168;2023-02-28T06:23:03;2.60;99.90
22008;DHT22;11168;56.976;24.168;2023-02-28T06:25:30;2.70;99.90
22008;DHT22;11168;56.976;24.168;2023-02-28T06:27:57;2.70;99.90
22008;DHT22;11168;56.976;24.168;2023-02-28T06:30:24;2.70;99.90
22008;DHT22;11168;56.976;24.168;2023-02-28T06:32:54;2.80;99.90
22008;DHT22;11168;56.976;24.168;2023-02-28T06:35:21;2.80;99.90
22008;DHT22;11168;56.976;24.168;2023-02-28T06:37:51;2.80;99.90
22008;DHT22;11168;56.976;24.168;2023-02-28T06:40:18;2.90;99.90
22008;DHT22;11168;56.976;24.168;2023-02-28T06:42:45;2.90;99.90
22008;DHT22;11168;56.976;24.168;2023-02-28T06:45:12;2.90;99.90
22008;DHT22;11168;56.976;24.168;2023-02-28T06:47:40;2.90;99.90
22008;DHT22;11168;56.976;24.168;2023-02-28T06:50:11;2.90;99.90
22008;DHT22;11168;56.976;24.168;2023-02-28T06:52:38;2.90;99.90
22008;DHT22;11168;56.976;24.168;2023-02-28T06:55:06;2.80;99.90
22008;DHT22;11168;56.976;24.168;2023-02-28T06:57:35;2.80;99.90
22008;DHT22;11168;56.976;24.168;2023-02-28T07:00:07;2.90;99.90
22008;DHT22;11168;56.976;24.168;2023-02-28T07:02:37;2.90;99.90
22008;DHT22;11168;56.976;24.168;2023-02-28T07:05:05;3.00;99.90
22008;DHT22;11168;56.976;24.168;2023-02-28T07:07:32;2.90;99.90
22008;DHT22;11168;56.976;24.168;2023-02-28T07:10:00;3.00;99.90
22008;DHT22;11168;56.976;24.168;2023-02-28T07:12:27;3.10;99.90
22008;DHT22;11168;56.976;24.168;2023-02-28T07:14:54;3.10;99.90
22008;DHT22;11168;56.976;24.168;2023-02-28T07:17:22;3.10;99.90
22008;DHT22;11168;56.976;24.168;2023-02-28T07:19:49;3.20;99.90
22008;DHT22;11168;56.976;24.168;2023-02-28T07:22:16;3.20;99.90
22008;DHT22;11168;56.976;24.168;2023-02-28T07:24:43;3.20;99.90
22008;DHT22;11168;56.976;24.168;2023-02-28T07:27:10;3.30;99.90
22008;DHT22;11168;56.976;24.168;2023-02-28T07:29:37;3.30;99.90
22008;DHT22;11168;56.976;24.168;2023-02-28T07:32:04;3.40;99.90
22008;DHT22;11168;56.976;24.168;2023-02-28T07:34:31;3.40;99.90
22008;DHT22;11168;56.976;24.168;2023-02-28T07:36:58;3.40;99.90
22008;DHT22;11168;56.976;24.168;2023-02-28T07:39:26;3.50;99.90
22008;DHT22;11168;56.976;24.168;2023-02-28T07:41:53;3.50;99.90
22008;DHT22;11168;56.976;24.168;2023-02-28T07:44:20;3.50;99.90
22008;DHT22;11168;56.976;24.168;2023-02-28T07:46:47;3.60;99.90
22008;DHT22;11168;56.976;24.168;2023-02-28T07:49:15;3.70;99.90
22008;DHT22;11168;56.976;24.168;2023-02-28T07:51:41;3.80;99.90
22008;DHT22;11168;56.976;24.168;2023-02-28T07:54:08;3.90;99.90
22008;DHT22;11168;56.976;24.168;2023-02-28T07:56:35;4.00;99.90
22008;DHT22;11168;56.976;24.168;2023-02-28T07:59:02;4.20;99.90
22008;DHT22;11168;56.976;24.168;2023-02-28T08:01:29;4.30;99.90
22008;DHT22;11168;56.976;24.168;2023-02-28T08:03:57;5.00;99.90
22008;DHT22;11168;56.976;24.168;2023-02-28T08:06:24;6.50;99.90
22008;DHT22;11168;56.976;24.168;2023-02-28T08:08:53;9.10;99.90
22008;DHT22;11168;56.976;24.168;2023-02-28T08:11:20;9.10;99.90
22008;DHT22;11168;56.976;24.168;2023-02-28T08:13:47;9.50;99.90
22008;DHT22;11168;56.976;24.168;2023-02-28T08:16:14;10.20;99.90
22008;DHT22;11168;56.976;24.168;2023-02-28T08:18:50;10.90;99.90
22008;DHT22;11168;56.976;24.168;2023-02-28T08:21:17;12.50;99.90
22008;DHT22;11168;56.976;24.168;2023-02-28T08:23:47;12.90;99.90
22008;DHT22;11168;56.976;24.168;2023-02-28T08:26:17;13.20;99.90
22008;DHT22;11168;56.976;24.168;2023-02-28T08:28:45;13.90;99.90
22008;DHT22;11168;56.976;24.168;2023-02-28T08:31:14;14.10;99.90
22008;DHT22;11168;56.976;24.168;2023-02-28T08:33:42;13.30;99.90
22008;DHT22;11168;56.976;24.168;2023-02-28T08:36:09;13.90;99.90
22008;DHT22;11168;56.976;24.168;2023-02-28T08:38:37;15.00;99.90
22008;DHT22;11168;56.976;24.168;2023-02-28T08:41:08;14.90;99.90
22008;DHT22;11168;56.976;24.168;2023-02-28T08:43:36;15.10;99.90
22008;DHT22;11168;56.976;24.168;2023-02-28T08:46:04;14.10;99.90
22008;DHT22;11168;56.976;24.168;2023-02-28T08:48:33;14.40;99.90
22008;DHT22;11168;56.976;24.168;2023-02-28T08:51:07;13.30;99.90
22008;DHT22;11168;56.976;24.168;2023-02-28T08:53:37;14.40;99.90
22008;DHT22;11168;56.976;24.168;2023-02-28T08:56:08;14.80;99.90
22008;DHT22;11168;56.976;24.168;2023-02-28T08:58:36;14.10;99.90
22008;DHT22;11168;56.976;24.168;2023-02-28T09:01:21;15.30;99.90
22008;DHT22;11168;56.976;24.168;2023-02-28T09:03:50;15.40;99.90
22008;DHT22;11168;56.976;24.168;2023-02-28T09:06:18;14.40;99.90
22008;DHT22;11168;56.976;24.168;2023-02-28T09:08:47;15.10;99.90
22008;DHT22;11168;56.976;24.168;2023-02-28T09:11:14;15.40;99.90
22008;DHT22;11168;56.976;24.168;2023-02-28T09:13:42;15.20;99.90
22008;DHT22;11168;56.976;24.168;2023-02-28T09:16:12;16.00;99.90
22008;DHT22;11168;56.976;24.168;2023-02-28T09:18:40;15.40;99.90
22008;DHT22;11168;56.976;24.168;2023-02-28T09:21:09;15.40;99.90
22008;DHT22;11168;56.976;24.168;2023-02-28T09:23:37;14.70;99.90
22008;DHT22;11168;56.976;24.168;2023-02-28T09:26:05;15.80;99.90
22008;DHT22;11168;56.976;24.168;2023-02-28T09:28:33;14.80;99.90
22008;DHT22;11168;56.976;24.168;2023-02-28T09:31:00;14.00;99.90
22008;DHT22;11168;56.976;24.168;2023-02-28T09:33:27;14.20;99.90
22008;DHT22;11168;56.976;24.168;2023-02-28T09:36:02;14.00;99.90
22008;DHT22;11168;56.976;24.168;2023-02-28T09:38:30;14.30;99.90
22008;DHT22;11168;56.976;24.168;2023-02-28T09:41:03;14.90;99.90
22008;DHT22;11168;56.976;24.168;2023-02-28T09:43:35;15.30;99.90
22008;DHT22;11168;56.976;24.168;2023-02-28T09:48:56;15.70;99.90
22008;DHT22;11168;56.976;24.168;2023-02-28T09:51:33;17.40;96.50
22008;DHT22;11168;56.976;24.168;2023-02-28T09:54:02;15.30;99.90
22008;DHT22;11168;56.976;24.168;2023-02-28T09:56:53;16.20;99.50
22008;DHT22;11168;56.976;24.168;2023-02-28T09:59:29;15.40;99.90
22008;DHT22;11168;56.976;24.168;2023-02-28T10:02:13;14.90;99.90
22008;DHT22;11168;56.976;24.168;2023-02-28T10:04:54;15.10;99.90
22008;DHT22;11168;56.976;24.168;2023-02-28T10:10:42;16.50;97.90
22008;DHT22;11168;56.976;24.168;2023-02-28T10:19:26;17.40;92.90
22008;DHT22;11168;56.976;24.168;2023-02-28T10:24:46;17.20;94.40
22008;DHT22;11168;56.976;24.168;2023-02-28T10:27:22;17.80;90.70
22008;DHT22;11168;56.976;24.168;2023-02-28T10:29:55;18.70;89.10
22008;DHT22;11168;56.976;24.168;2023-02-28T10:32:36;16.60;90.90
22008;DHT22;11168;56.976;24.168;2023-02-28T10:37:41;18.50;91.30
22008;DHT22;11168;56.976;24.168;2023-02-28T10:43:16;16.90;93.10
22008;DHT22;11168;56.976;24.168;2023-02-28T10:45:59;17.40;94.30
22008;DHT22;11168;56.976;24.168;2023-02-28T10:50:58;17.10;93.90
22008;DHT22;11168;56.976;24.168;2023-02-28T10:53:48;16.40;92.90
22008;DHT22;11168;56.976;24.168;2023-02-28T10:56:27;14.90;99.90
22008;DHT22;11168;56.976;24.168;2023-02-28T11:01:46;15.60;99.60
22008;DHT22;11168;56.976;24.168;2023-02-28T11:09:32;13.90;99.90
22008;DHT22;11168;56.976;24.168;2023-02-28T11:12:02;14.60;99.90
22008;DHT22;11168;56.976;24.168;2023-02-28T11:14:31;14.50;99.90
22008;DHT22;11168;56.976;24.168;2023-02-28T11:17:18;14.90;99.90
22008;DHT22;11168;56.976;24.168;2023-02-28T11:19:49;14.40;99.90
22008;DHT22;11168;56.976;24.168;2023-02-28T11:22:18;15.10;99.90
22008;DHT22;11168;56.976;24.168;2023-02-28T11:24:49;15.70;98.90
22008;DHT22;11168;56.976;24.168;2023-02-28T11:27:50;15.70;99.30
22008;DHT22;11168;56.976;24.168;2023-02-28T11:30:29;15.40;99.60
22008;DHT22;11168;56.976;24.168;2023-02-28T11:32:56;14.00;99.90
22008;DHT22;11168;56.976;24.168;2023-02-28T11:35:38;14.00;99.90
22008;DHT22;11168;56.976;24.168;2023-02-28T11:38:12;13.80;99.90
22008;DHT22;11168;56.976;24.168;2023-02-28T11:40:59;12.90;99.90
22008;DHT22;11168;56.976;24.168;2023-02-28T11:43:53;11.00;99.90
22008;DHT22;11168;56.976;24.168;2023-02-28T11:46:44;10.70;99.90
22008;DHT22;11168;56.976;24.168;2023-02-28T11:52:02;10.10;99.90
22008;DHT22;11168;56.976;24.168;2023-02-28T12:03:49;11.80;99.90
22008;DHT22;11168;56.976;24.168;2023-02-28T12:09:02;11.20;99.90
22008;DHT22;11168;56.976;24.168;2023-02-28T12:16:56;10.90;99.90
22008;DHT22;11168;56.976;24.168;2023-02-28T12:27:37;10.80;99.90
22008;DHT22;11168;56.976;24.168;2023-02-28T12:30:08;10.70;99.90
22008;DHT22;11168;56.976;24.168;2023-02-28T12:32:43;10.80;99.90
22008;DHT22;11168;56.976;24.168;2023-02-28T12:35:18;10.60;99.90
22008;DHT22;11168;56.976;24.168;2023-02-28T12:37:55;9.70;99.90
22008;DHT22;11168;56.976;24.168;2023-02-28T12:40:26;9.50;99.90
22008;DHT22;11168;56.976;24.168;2023-02-28T12:43:07;9.00;99.90
22008;DHT22;11168;56.976;24.168;2023-02-28T12:45:58;9.00;99.90
22008;DHT22;11168;56.976;24.168;2023-02-28T12:48:31;9.10;99.90
22008;DHT22;11168;56.976;24.168;2023-02-28T12:51:06;8.80;99.90
22008;DHT22;11168;56.976;24.168;2023-02-28T12:53:54;8.40;99.90
22008;DHT22;11168;56.976;24.168;2023-02-28T12:59:37;8.60;99.90
22008;DHT22;11168;56.976;24.168;2023-02-28T13:13:06;8.10;99.90
22008;DHT22;11168;56.976;24.168;2023-02-28T13:15:39;8.10;99.90
22008;DHT22;11168;56.976;24.168;2023-02-28T13:18:32;7.90;99.90
22008;DHT22;11168;56.976;24.168;2023-02-28T13:21:00;7.70;99.90
22008;DHT22;11168;56.976;24.168;2023-02-28T13:26:13;7.50;99.90
22008;DHT22;11168;56.976;24.168;2023-02-28T13:29:27;7.60;99.90
22008;DHT22;11168;56.976;24.168;2023-02-28T13:34:37;7.30;99.90
22008;DHT22;11168;56.976;24.168;2023-02-28T13:39:50;7.20;99.90
22008;DHT22;11168;56.976;24.168;2023-02-28T13:47:43;7.20;99.90
22008;DHT22;11168;56.976;24.168;2023-02-28T14:01:27;7.10;99.90
22008;DHT22;11168;56.976;24.168;2023-02-28T14:06:53;7.00;99.90
22008;DHT22;11168;56.976;24.168;2023-02-28T14:09:41;6.90;99.90
22008;DHT22;11168;56.976;24.168;2023-02-28T14:18:30;6.60;99.90
22008;DHT22;11168;56.976;24.168;2023-02-28T14:32:44;6.00;99.90
22008;DHT22;11168;56.976;24.168;2023-02-28T14:37:55;5.80;99.90
22008;DHT22;11168;56.976;24.168;2023-02-28T14:40:31;5.60;99.90
22008;DHT22;11168;56.976;24.168;2023-02-28T14:43:01;5.50;99.90
22008;DHT22;11168;56.976;24.168;2023-02-28T14:45:31;5.50;99.90
22008;DHT22;11168;56.976;24.168;2023-02-28T14:47:59;5.30;99.90
22008;DHT22;11168;56.976;24.168;2023-02-28T14:50:34;5.30;99.90
22008;DHT22;11168;56.976;24.168;2023-02-28T14:53:02;5.20;99.90
22008;DHT22;11168;56.976;24.168;2023-02-28T14:55:43;5.20;99.90
22008;DHT22;11168;56.976;24.168;2023-02-28T14:58:26;5.30;99.90
22008;DHT22;11168;56.976;24.168;2023-02-28T15:00:56;5.30;99.90
22008;DHT22;11168;56.976;24.168;2023-02-28T15:03:35;5.10;99.90
22008;DHT22;11168;56.976;24.168;2023-02-28T15:06:04;5.20;99.90
22008;DHT22;11168;56.976;24.168;2023-02-28T15:08:33;5.20;99.90
22008;DHT22;11168;56.976;24.168;2023-02-28T15:11:08;5.10;99.90
22008;DHT22;11168;56.976;24.168;2023-02-28T15:13:40;5.10;99.90
22008;DHT22;11168;56.976;24.168;2023-02-28T15:16:32;4.90;99.90
22008;DHT22;11168;56.976;24.168;2023-02-28T15:19:20;4.90;99.90
22008;DHT22;11168;56.976;24.168;2023-02-28T15:21:55;4.70;99.90
22008;DHT22;11168;56.976;24.168;2023-02-28T15:24:37;4.70;99.90
22008;DHT22;11168;56.976;24.168;2023-02-28T15:27:09;4.60;99.90
22008;DHT22;11168;56.976;24.168;2023-02-28T15:29:47;4.50;99.90
22008;DHT22;11168;56.976;24.168;2023-02-28T15:32:34;4.40;99.90
22008;DHT22;11168;56.976;24.168;2023-02-28T15:38:01;4.20;99.90
22008;DHT22;11168;56.976;24.168;2023-02-28T15:40:35;4.20;99.90
22008;DHT22;11168;56.976;24.168;2023-02-28T15:45:39;4.20;99.90
22008;DHT22;11168;56.976;24.168;2023-02-28T15:48:35;4.10;99.90
22008;DHT22;11168;56.976;24.168;2023-02-28T15:51:39;4.00;99.90
22008;DHT22;11168;56.976;24.168;2023-02-28T15:54:08;4.10;99.90
22008;DHT22;11168;56.976;24.168;2023-02-28T15:56:43;3.90;99.90
22008;DHT22;11168;56.976;24.168;2023-02-28T15:59:21;4.00;99.90
22008;DHT22;11168;56.976;24.168;2023-02-28T16:04:55;3.90;99.90
22008;DHT22;11168;56.976;24.168;2023-02-28T16:07:22;3.90;99.90
22008;DHT22;11168;56.976;24.168;2023-02-28T16:09:51;3.90;99.90
22008;DHT22;11168;56.976;24.168;2023-02-28T16:12:18;4.00;99.90
22008;DHT22;11168;56.976;24.168;2023-02-28T16:14:48;3.90;99.90
22008;DHT22;11168;56.976;24.168;2023-02-28T16:17:21;3.90;99.90
22008;DHT22;11168;56.976;24.168;2023-02-28T16:19:48;3.80;99.90
22008;DHT22;11168;56.976;24.168;2023-02-28T16:22:15;3.90;99.90
22008;DHT22;11168;56.976;24.168;2023-02-28T16:24:42;3.90;99.90
22008;DHT22;11168;56.976;24.168;2023-02-28T16:27:25;3.90;99.90
22008;DHT22;11168;56.976;24.168;2023-02-28T16:29:56;4.00;99.90
22008;DHT22;11168;56.976;24.168;2023-02-28T16:32:23;3.90;99.90
22008;DHT22;11168;56.976;24.168;2023-02-28T16:34:50;3.90;99.90
22008;DHT22;11168;56.976;24.168;2023-02-28T16:37:20;3.90;99.90
22008;DHT22;11168;56.976;24.168;2023-02-28T16:39:47;3.90;99.90
22008;DHT22;11168;56.976;24.168;2023-02-28T16:42:22;3.90;99.90
22008;DHT22;11168;56.976;24.168;2023-02-28T16:44:50;4.00;99.90
22008;DHT22;11168;56.976;24.168;2023-02-28T16:47:17;4.00;99.90
22008;DHT22;11168;56.976;24.168;2023-02-28T16:49:44;4.00;99.90
22008;DHT22;11168;56.976;24.168;2023-02-28T16:52:11;4.00;99.90
22008;DHT22;11168;56.976;24.168;2023-02-28T16:54:40;4.00;99.90
22008;DHT22;11168;56.976;24.168;2023-02-28T16:57:19;4.00;99.90
22008;DHT22;11168;56.976;24.168;2023-02-28T16:59:49;4.00;99.90
22008;DHT22;11168;56.976;24.168;2023-02-28T17:02:18;3.90;99.90
22008;DHT22;11168;56.976;24.168;2023-02-28T17:04:46;3.90;99.90
22008;DHT22;11168;56.976;24.168;2023-02-28T17:07:15;4.00;99.90
22008;DHT22;11168;56.976;24.168;2023-02-28T17:09:45;3.90;99.90
22008;DHT22;11168;56.976;24.168;2023-02-28T17:12:12;3.90;99.90
22008;DHT22;11168;56.976;24.168;2023-02-28T17:14:39;3.90;99.90
22008;DHT22;11168;56.976;24.168;2023-02-28T17:17:07;3.90;99.90
22008;DHT22;11168;56.976;24.168;2023-02-28T17:19:36;3.80;99.90
22008;DHT22;11168;56.976;24.168;2023-02-28T17:22:05;3.80;99.90
22008;DHT22;11168;56.976;24.168;2023-02-28T17:24:32;3.80;99.90
22008;DHT22;11168;56.976;24.168;2023-02-28T17:26:58;3.80;99.90
22008;DHT22;11168;56.976;24.168;2023-02-28T17:29:25;3.70;99.90
22008;DHT22;11168;56.976;24.168;2023-02-28T17:31:53;3.80;99.90
22008;DHT22;11168;56.976;24.168;2023-02-28T17:34:20;3.70;99.90
22008;DHT22;11168;56.976;24.168;2023-02-28T17:36:49;3.70;99.90
22008;DHT22;11168;56.976;24.168;2023-02-28T17:39:18;3.70;99.90
22008;DHT22;11168;56.976;24.168;2023-02-28T17:41:52;3.60;99.90
22008;DHT22;11168;56.976;24.168;2023-02-28T17:44:20;3.60;99.90
22008;DHT22;11168;56.976;24.168;2023-02-28T17:46:47;3.60;99.90
22008;DHT22;11168;56.976;24.168;2023-02-28T17:49:18;3.60;99.90
22008;DHT22;11168;56.976;24.168;2023-02-28T17:51:46;3.50;99.90
22008;DHT22;11168;56.976;24.168;2023-02-28T17:54:14;3.50;99.90
22008;DHT22;11168;56.976;24.168;2023-02-28T17:56:43;3.50;99.90
22008;DHT22;11168;56.976;24.168;2023-02-28T17:59:12;3.50;99.90
22008;DHT22;11168;56.976;24.168;2023-02-28T18:01:39;3.40;99.90
22008;DHT22;11168;56.976;24.168;2023-02-28T18:04:06;3.40;99.90
22008;DHT22;11168;56.976;24.168;2023-02-28T18:06:41;3.40;99.90
22008;DHT22;11168;56.976;24.168;2023-02-28T18:09:21;3.40;99.90
22008;DHT22;11168;56.976;24.168;2023-02-28T18:11:50;3.40;99.90
22008;DHT22;11168;56.976;24.168;2023-02-28T18:14:19;3.30;99.90
22008;DHT22;11168;56.976;24.168;2023-02-28T18:16:47;3.30;99.90
22008;DHT22;11168;56.976;24.168;2023-02-28T18:19:14;3.30;99.90
22008;DHT22;11168;56.976;24.168;2023-02-28T18:21:44;3.30;99.90
22008;DHT22;11168;56.976;24.168;2023-02-28T18:24:11;3.30;99.90
22008;DHT22;11168;56.976;24.168;2023-02-28T18:26:39;3.30;99.90
22008;DHT22;11168;56.976;24.168;2023-02-28T18:29:07;3.20;99.90
22008;DHT22;11168;56.976;24.168;2023-02-28T18:31:34;3.20;99.90
22008;DHT22;11168;56.976;24.168;2023-02-28T18:34:01;3.20;99.90
22008;DHT22;11168;56.976;24.168;2023-02-28T18:36:28;3.20;99.90
22008;DHT22;11168;56.976;24.168;2023-02-28T18:38:56;3.20;99.90
22008;DHT22;11168;56.976;24.168;2023-02-28T18:41:23;3.20;99.90
22008;DHT22;11168;56.976;24.168;2023-02-28T18:43:50;3.20;99.90
22008;DHT22;11168;56.976;24.168;2023-02-28T18:46:19;3.20;99.90
22008;DHT22;11168;56.976;24.168;2023-02-28T18:48:46;3.20;99.90
22008;DHT22;11168;56.976;24.168;2023-02-28T18:51:22;3.20;99.90
22008;DHT22;11168;56.976;24.168;2023-02-28T18:53:50;3.20;99.90